Terminal Aerodrome Forecast
Issued by NWS Omaha/Valley, NE

Home | Current Version | Previous Version | Graphics & Text | Print | Product List | Glossary On
Versions: 1 2 3 4 5 6 7 8 9 10 11 12 13 14 15 16 17 18 19 20 21 22 23 24 25 26 27 28 29 30 31 32
248
FTUS43 KOAX 192335
TAFOFK
TAF
KOFK 192335Z 2000/2024 15005KT 5SM BR OVC005
     FM200300 14003KT 2SM BR OVC003
     FM200600 13003KT 1SM BR OVC002
     FM201200 15005KT 1/2SM FG OVC003=

USA.gov is the U.S. government's official web portal to all federal, state and local government web resources and services.